Arleta, California
Current Conditions -  °F | °C
As of 11:53 PM on Saturday 25 Oct 2014 (Local Time) from KBUR Reporting Station
Clear Clear  
Wind Chill: 17°   Ceiling: Unl
Heat Index: 17°   Visibility: 10mi
Dew Point:   Wind: 3mph
Humidity: 56%   Direction: 330°NNW
Pressure: 30.01"   Gusts: NA
Location:  34.2574°N, 118.255°W
Report Text: KBUR 260653Z 33003KT 10SM CLR 17/08 A3001 RMK AO2 SLP151 T01720083
Loading
Personal Weather Stations






























Interactive Weather Map
Tropical Storm Tracking
New forecast layout! Learn more

10-Day Weather Forecast

Advertisements
Track Severe Weather on mobile